Adana Bolge, Turkey

11:10 PM EET on November 22, 2014 (GMT +0200)
Adana | Change Station
CLOSE
Current Station
Airport
Location: Adana,
Elevation: 66 ft
Nearby Weather Stations

Elev 66 ft 36.98 °N, 35.30 °E | Updated 20 minutes ago

Partly Cloudy
Partly Cloudy
48 °F
Feels Like 48 °F
N
2
Wind Variable Wind from Variable

Today
High -- | Low -- °F
--% Chance of Precip.
Yesterday
High -- | Low -- °F
Precip. -- in
6:23 AM 4:25 PM
New Moon, 0% visible
Pressure 29.98 in
Visibility 3.1 miles
Clouds Few 4000 ft
Dew Point 41 °F
Humidity 76%
Rainfall 0.00 in
Snow Depth Not available.
UV 0 out of 12
Pollen Not available.
Air Quality Not available.
Flu Activity Not available.
METAR LTAF 222050Z VRB02KT 5000 BR FEW040 09/05 Q1015 NOSIG

More Conditions Fewer Conditions

Pressure 29.98 in
Visibility 3.1 miles
Clouds Few 4000 ft
Dew Point 41 °F
Humidity 76%
Rainfall 0.00 in
Snow Depth Not available.
UV 0 out of 12
Pollen Not available.
Air Quality Not available.
Flu Activity Not available.
METAR LTAF 222050Z VRB02KT 5000 BR FEW040 09/05 Q1015 NOSIG

More Conditions Fewer Conditions

10-Day Weather Forecast

Almanac

Astronomy

Nov. 22, 2014 Rise Set
Actual Time
Civil Twilight
Nautical Twilight
Astronomical Twilight
Moon
Length of Visible Light
Length of Day
Tomorrow will be .
, % of the Moon is Illuminated

Today's Extremes

Country Highs Country Lows

Community

WunderPhotos

Upload Photos

1,772,904 photos uploaded!

WunderBlogs® & News

Nearby

Air Quality

  Air Quality AQ Index Pollutant
Not available.

Snow Depth

Station Depth Elevation

Earthquake Activity

City Distance Mag. Time & Date
Minimum magnitude displayed is 2.5.

Coastal Water Temperatures

Place Temperature

Nearby Weather Stations